Time;durP1;ratioP1;P1;durP2;ratioP2;P2;SDS_P1;SDS_P2;PMS_P1;PMS_P2;Temp;Humidity;BMP_temperature;BMP_pressure;BME280_temperature;BME280_humidity;BME280_pressure;Samples;Min_cycle;Max_cycle;Signal;HPM_P1;HPM_P2
2023/05/23 00:01:06;;;;;;;;;;;;;;;17.19;100.00;-18489.97;5015361;28;19928;-79
2023/05/23 00:03:31;;;;;;;;;;;;;;;17.23;100.00;-18491.06;5011022;28;19988;-79
2023/05/23 00:05:58;;;;;;;;;;;;;;;17.22;100.00;-18490.78;5013693;28;19925;-79
2023/05/23 00:08:23;;;;;;;;;;;;;;;17.18;100.00;-18489.69;5008252;28;19929;-79
2023/05/23 00:10:48;;;;;;;;;;;;;;;17.02;100.00;-18485.44;5010505;28;19997;-78
2023/05/23 00:13:13;;;;;;;;;;;;;;;17.01;100.00;-18485.03;5011254;28;19928;-78
2023/05/23 00:15:42;;;;;;;;;;;;;;;17.07;100.00;-18486.81;5013192;28;20012;-78
2023/05/23 00:18:09;;;;;;;;;;;;;;;17.08;100.00;-18487.09;5007728;28;20396;-80
2023/05/23 00:20:35;;;;;;;;;;;;;;;17.20;100.00;-18490.09;5011629;28;20648;-78
2023/05/23 00:23:02;;;;;;;;;;;;;;;17.35;100.00;-18494.34;5013457;28;19977;-80
2023/05/23 00:25:32;;;;;;;;;;;;;;;17.49;100.00;-18497.88;5011269;28;20308;-79
2023/05/23 00:27:58;;;;;;;;;;;;;;;17.45;100.00;-18496.78;5010724;28;20511;-79
2023/05/23 00:30:23;;;;;;;;;;;;;;;17.47;100.00;-18497.47;5010963;28;19957;-78
2023/05/23 00:32:48;;;;;;;;;;;;;;;17.45;100.00;-18496.78;5010900;28;19928;-80
2023/05/23 00:35:13;;;;;;;;;;;;;;;17.46;100.00;-18497.06;5009471;28;19930;-78
2023/05/23 00:37:39;;;;;;;;;;;;;;;17.55;100.00;-18499.50;5009916;28;20012;-81
2023/05/23 00:40:04;;;;;;;;;;;;;;;17.60;100.00;-18500.88;5010488;28;19929;-79
2023/05/23 00:42:31;;;;;;;;;;;;;;;17.37;100.00;-18494.88;5010403;28;19921;-78
2023/05/23 00:44:57;;;;;;;;;;;;;;;17.39;100.00;-18495.16;5011196;28;20380;-79
2023/05/23 00:47:22;;;;;;;;;;;;;;;17.33;100.00;-18493.78;5012154;28;19928;-79
2023/05/23 00:49:47;;;;;;;;;;;;;;;17.13;100.00;-18488.47;5009734;28;19922;-80
2023/05/23 00:52:13;;;;;;;;;;;;;;;17.08;100.00;-18487.09;5011306;28;19921;-79
2023/05/23 00:54:38;;;;;;;;;;;;;;;17.18;100.00;-18489.56;5007723;28;19953;-79
2023/05/23 00:57:04;;;;;;;;;;;;;;;17.13;100.00;-18488.31;5006038;28;20384;-80
2023/05/23 00:59:29;;;;;;;;;;;;;;;17.04;100.00;-18486.00;5006836;28;20324;-79
2023/05/23 01:01:57;;;;;;;;;;;;;;;17.16;100.00;-18489.13;5007353;28;19929;-80
2023/05/23 01:04:27;;;;;;;;;;;;;;;17.28;100.00;-18492.28;5005763;28;19936;-80
2023/05/23 01:06:55;;;;;;;;;;;;;;;17.26;100.00;-18491.88;5008270;28;20052;-80
2023/05/23 01:09:21;;;;;;;;;;;;;;;17.21;100.00;-18490.38;5009869;28;19973;-80
2023/05/23 01:11:56;;;;;;;;;;;;;;;17.33;100.00;-18493.78;5012109;28;20572;-80
2023/05/23 01:14:26;;;;;;;;;;;;;;;17.17;100.00;-18489.41;5030251;28;19921;-80
2023/05/23 01:17:04;;;;;;;;;;;;;;;17.11;100.00;-18487.78;5014869;28;19929;-80
2023/05/23 01:19:48;;;;;;;;;;;;;;;17.18;100.00;-18489.69;5010341;28;19922;-80
2023/05/23 01:22:33;;;;;;;;;;;;;;;17.26;100.00;-18491.72;5008617;28;19921;-80
2023/05/23 01:25:17;;;;;;;;;;;;;;;17.48;100.00;-18497.75;5018085;28;19925;-80
2023/05/23 01:27:51;;;;;;;;;;;;;;;17.39;100.00;-18495.16;5002849;28;19980;-80
2023/05/23 01:30:18;;;;;;;;;;;;;;;17.21;100.00;-18490.50;5005807;28;19921;-80
2023/05/23 01:32:45;;;;;;;;;;;;;;;17.43;100.00;-18496.25;5006852;28;19929;-80
2023/05/23 01:35:10;;;;;;;;;;;;;;;17.13;100.00;-18488.31;5006535;28;20475;-80
2023/05/23 01:37:36;;;;;;;;;;;;;;;17.01;100.00;-18485.03;5006603;28;19961;-79
2023/05/23 01:40:01;;;;;;;;;;;;;;;16.75;100.00;-18478.06;5006238;28;20047;-80
2023/05/23 01:42:27;;;;;;;;;;;;;;;16.74;100.00;-18477.94;5005890;28;20016;-79
2023/05/23 01:44:52;;;;;;;;;;;;;;;16.97;100.00;-18484.09;5006751;28;21409;-80
2023/05/23 01:47:19;;;;;;;;;;;;;;;16.94;100.00;-18483.28;5006121;28;19930;-79
2023/05/23 01:49:45;;;;;;;;;;;;;;;16.96;100.00;-18483.81;5009246;28;19929;-79
2023/05/23 01:52:12;;;;;;;;;;;;;;;16.94;100.00;-18483.13;5016425;28;19943;-79
2023/05/23 01:54:38;;;;;;;;;;;;;;;16.95;100.00;-18483.41;5015333;28;20398;-80
2023/05/23 01:57:03;;;;;;;;;;;;;;;16.82;100.00;-18480.00;5013613;28;20012;-79
2023/05/23 01:59:29;;;;;;;;;;;;;;;16.78;100.00;-18479.03;5012777;28;19918;-79
2023/05/23 02:01:54;;;;;;;;;;;;;;;16.85;100.00;-18480.81;5011970;28;19965;-79
2023/05/23 02:04:20;;;;;;;;;;;;;;;16.73;100.00;-18477.66;5010829;28;20332;-80
2023/05/23 02:06:46;;;;;;;;;;;;;;;16.62;100.00;-18474.66;5011770;28;20347;-80
2023/05/23 02:09:11;;;;;;;;;;;;;;;16.75;100.00;-18478.06;5016209;28;19921;-80
2023/05/23 02:11:36;;;;;;;;;;;;;;;16.79;100.00;-18479.31;5008417;28;19921;-80
2023/05/23 02:14:02;;;;;;;;;;;;;;;16.47;100.00;-18470.84;5014207;28;20651;-80
2023/05/23 02:16:27;;;;;;;;;;;;;;;16.50;100.00;-18471.38;5010898;28;20320;-79
2023/05/23 02:18:55;;;;;;;;;;;;;;;16.50;100.00;-18471.38;5012444;28;20029;-80
2023/05/23 02:21:20;;;;;;;;;;;;;;;16.47;100.00;-18470.69;5011033;28;19929;-80
2023/05/23 02:23:46;;;;;;;;;;;;;;;16.44;100.00;-18469.88;5010029;28;19925;-80
2023/05/23 02:26:11;;;;;;;;;;;;;;;16.43;100.00;-18469.75;5010920;28;19925;-79
2023/05/23 02:28:36;;;;;;;;;;;;;;;16.44;100.00;-18470.00;5009178;28;20385;-80
2023/05/23 02:31:01;;;;;;;;;;;;;;;16.33;100.00;-18467.00;5011759;28;20328;-80
2023/05/23 02:33:27;;;;;;;;;;;;;;;16.35;100.00;-18467.56;5010026;28;19995;-80
2023/05/23 02:35:54;;;;;;;;;;;;;;;16.42;100.00;-18469.34;5017307;28;20018;-80
2023/05/23 02:38:19;;;;;;;;;;;;;;;16.41;100.00;-18469.19;5012724;28;20152;-80
2023/05/23 02:40:44;;;;;;;;;;;;;;;16.23;100.00;-18464.28;5012289;28;19921;-80
2023/05/23 02:43:09;;;;;;;;;;;;;;;16.14;100.00;-18461.81;5009833;28;19925;-80
2023/05/23 02:45:35;;;;;;;;;;;;;;;16.17;100.00;-18462.63;5010730;28;19922;-80
2023/05/23 02:48:00;;;;;;;;;;;;;;;16.27;100.00;-18465.38;5017931;28;20392;-80
2023/05/23 02:50:25;;;;;;;;;;;;;;;16.15;100.00;-18462.22;5010970;28;20390;-80
2023/05/23 02:52:50;;;;;;;;;;;;;;;16.15;100.00;-18462.09;5017610;28;19921;-80
2023/05/23 02:55:16;;;;;;;;;;;;;;;16.19;100.00;-18463.19;5009279;28;20009;-79
2023/05/23 02:57:41;;;;;;;;;;;;;;;16.11;100.00;-18461.00;5015548;28;19971;-80
2023/05/23 03:00:08;;;;;;;;;;;;;;;16.27;100.00;-18465.38;5005906;28;19940;-80
2023/05/23 03:02:33;;;;;;;;;;;;;;;16.32;100.00;-18466.59;5008898;28;20003;-79
2023/05/23 03:04:59;;;;;;;;;;;;;;;16.09;100.00;-18460.44;5017910;28;20737;-80
2023/05/23 03:07:24;;;;;;;;;;;;;;;16.06;100.00;-18459.63;5018596;28;20358;-79
2023/05/23 03:09:50;;;;;;;;;;;;;;;16.25;100.00;-18464.81;5011962;28;20449;-80
2023/05/23 03:12:15;;;;;;;;;;;;;;;16.27;100.00;-18465.38;5017856;28;19928;-79
2023/05/23 03:14:40;;;;;;;;;;;;;;;16.38;100.00;-18468.38;5012149;28;19917;-80
2023/05/23 03:17:05;;;;;;;;;;;;;;;16.36;100.00;-18467.81;5012105;28;19917;-80
2023/05/23 03:19:30;;;;;;;;;;;;;;;16.27;100.00;-18465.38;5008283;28;19922;-80
2023/05/23 03:21:56;;;;;;;;;;;;;;;16.27;100.00;-18465.22;5010352;28;19922;-80
2023/05/23 03:24:21;;;;;;;;;;;;;;;16.07;100.00;-18459.91;5012644;28;19925;-80
2023/05/23 03:26:46;;;;;;;;;;;;;;;15.95;100.00;-18456.75;5006119;28;19925;-79
2023/05/23 03:29:12;;;;;;;;;;;;;;;15.98;100.00;-18457.56;5011355;28;20292;-80
2023/05/23 03:31:37;;;;;;;;;;;;;;;16.25;100.00;-18464.81;5020198;22;19933;-79
2023/05/23 03:34:04;;;;;;;;;;;;;;;16.37;100.00;-18468.09;5007523;28;19945;-80
2023/05/23 03:36:32;;;;;;;;;;;;;;;16.38;100.00;-18468.25;5004087;28;19929;-79
2023/05/23 03:38:57;;;;;;;;;;;;;;;16.24;100.00;-18464.56;4997550;28;19929;-79
2023/05/23 03:41:22;;;;;;;;;;;;;;;16.39;100.00;-18468.66;5001695;28;20320;-79
2023/05/23 03:43:47;;;;;;;;;;;;;;;16.24;100.00;-18464.56;4983389;28;19929;-79
2023/05/23 03:46:13;;;;;;;;;;;;;;;16.28;100.00;-18465.50;4996228;28;19930;-79
2023/05/23 03:48:38;;;;;;;;;;;;;;;16.15;100.00;-18462.22;5000486;28;19929;-79
2023/05/23 03:51:03;;;;;;;;;;;;;;;16.29;100.00;-18465.91;5002907;28;19976;-79
2023/05/23 03:53:28;;;;;;;;;;;;;;;15.97;100.00;-18457.44;4999766;28;19976;-79
2023/05/23 03:55:54;;;;;;;;;;;;;;;16.09;100.00;-18460.44;4998733;28;19929;-79
2023/05/23 03:58:19;;;;;;;;;;;;;;;16.12;100.00;-18461.28;4996558;28;20609;-78
2023/05/23 04:00:45;;;;;;;;;;;;;;;16.08;100.00;-18460.19;5005345;28;20001;-79
2023/05/23 04:03:14;;;;;;;;;;;;;;;16.30;100.00;-18466.06;5007829;28;19949;-79
2023/05/23 04:05:39;;;;;;;;;;;;;;;16.30;100.00;-18466.06;5007654;28;19929;-79
2023/05/23 04:08:05;;;;;;;;;;;;;;;16.34;100.00;-18467.16;4999156;28;19937;-79
2023/05/23 04:10:31;;;;;;;;;;;;;;;16.13;100.00;-18461.69;5020837;28;19997;-79
2023/05/23 04:12:57;;;;;;;;;;;;;;;16.09;100.00;-18460.59;4997491;28;20273;-79
2023/05/23 04:15:23;;;;;;;;;;;;;;;16.03;100.00;-18458.94;4997203;28;19921;-79
2023/05/23 04:17:50;;;;;;;;;;;;;;;15.88;100.00;-18454.97;4997242;28;19981;-78
2023/05/23 04:20:16;;;;;;;;;;;;;;;15.78;100.00;-18452.25;4998709;28;19956;-78
2023/05/23 04:22:41;;;;;;;;;;;;;;;15.68;100.00;-18449.66;5002434;28;19948;-78
2023/05/23 04:25:06;;;;;;;;;;;;;;;15.85;100.00;-18454.03;4999874;28;19933;-79
2023/05/23 04:27:33;;;;;;;;;;;;;;;15.95;100.00;-18456.91;5001349;28;19972;-79
2023/05/23 04:29:59;;;;;;;;;;;;;;;15.82;100.00;-18453.19;4997512;28;19991;-80
2023/05/23 04:32:25;;;;;;;;;;;;;;;15.76;100.00;-18451.69;5002280;28;19922;-78
2023/05/23 04:34:50;;;;;;;;;;;;;;;15.70;100.00;-18450.06;5005594;28;19926;-79
2023/05/23 04:37:16;;;;;;;;;;;;;;;15.64;100.00;-18448.41;4999512;28;20011;-79
2023/05/23 04:39:41;;;;;;;;;;;;;;;15.67;100.00;-18449.22;4999917;28;19929;-78
2023/05/23 04:42:06;;;;;;;;;;;;;;;15.70;100.00;-18450.06;5008695;28;19921;-79
2023/05/23 04:44:32;;;;;;;;;;;;;;;15.64;100.00;-18448.41;5001455;28;20360;-78
2023/05/23 04:46:57;;;;;;;;;;;;;;;15.69;100.00;-18449.78;4999777;28;19955;-79
2023/05/23 04:49:23;;;;;;;;;;;;;;;15.77;100.00;-18452.13;5003472;28;19956;-79
2023/05/23 04:51:48;;;;;;;;;;;;;;;15.49;100.00;-18444.59;4999566;28;20392;-79
2023/05/23 04:54:13;;;;;;;;;;;;;;;15.55;100.00;-18446.22;5002375;28;19953;-79
2023/05/23 04:56:39;;;;;;;;;;;;;;;15.41;100.00;-18442.41;4999232;28;19936;-79
2023/05/23 04:59:04;;;;;;;;;;;;;;;15.27;100.00;-18438.69;4993168;28;19926;-79
2023/05/23 05:01:30;;;;;;;;;;;;;;;15.28;100.00;-18438.97;5009516;28;19921;-79
2023/05/23 05:03:55;;;;;;;;;;;;;;;15.39;100.00;-18441.72;4997592;28;20439;-79
2023/05/23 05:06:21;;;;;;;;;;;;;;;15.60;100.00;-18447.31;4995538;28;20337;-79
2023/05/23 05:08:47;;;;;;;;;;;;;;;15.66;100.00;-18448.97;5008099;28;19929;-79
2023/05/23 05:11:12;;;;;;;;;;;;;;;15.79;100.00;-18452.66;4999518;28;19928;-79
2023/05/23 05:13:37;;;;;;;;;;;;;;;15.79;100.00;-18452.53;4998081;28;19922;-79
2023/05/23 05:16:03;;;;;;;;;;;;;;;15.93;100.00;-18456.22;5000491;28;19925;-79
2023/05/23 05:18:28;;;;;;;;;;;;;;;15.73;100.00;-18450.88;5001205;28;19953;-79
2023/05/23 05:20:54;;;;;;;;;;;;;;;15.94;100.00;-18456.47;5002676;28;20544;-79
2023/05/23 05:23:22;;;;;;;;;;;;;;;15.75;100.00;-18451.44;5001416;28;19922;-79
2023/05/23 05:25:48;;;;;;;;;;;;;;;15.63;100.00;-18448.13;5005409;28;19925;-79
2023/05/23 05:28:13;;;;;;;;;;;;;;;15.64;100.00;-18448.41;5007081;28;19932;-79
2023/05/23 05:30:38;;;;;;;;;;;;;;;15.63;100.00;-18448.13;5003126;28;19930;-79
2023/05/23 05:33:04;;;;;;;;;;;;;;;15.62;100.00;-18448.00;4997344;28;19932;-79
2023/05/23 05:35:33;;;;;;;;;;;;;;;15.70;100.00;-18450.06;5000905;28;20012;-79
2023/05/23 05:37:59;;;;;;;;;;;;;;;15.69;100.00;-18449.91;5001181;28;20039;-79
2023/05/23 05:40:24;;;;;;;;;;;;;;;15.73;100.00;-18450.88;4999393;28;20431;-79
2023/05/23 05:42:50;;;;;;;;;;;;;;;15.68;100.00;-18449.50;5006203;28;20388;-82
2023/05/23 05:45:15;;;;;;;;;;;;;;;15.94;100.00;-18456.63;5004356;28;19953;-79
2023/05/23 05:47:40;;;;;;;;;;;;;;;16.11;100.00;-18461.00;5006192;28;19926;-79
2023/05/23 05:50:08;;;;;;;;;;;;;;;16.07;100.00;-18460.03;5000190;28;19945;-82
2023/05/23 05:52:37;;;;;;;;;;;;;;;15.77;100.00;-18452.13;5002201;28;19921;-81
2023/05/23 05:55:02;;;;;;;;;;;;;;;16.00;100.00;-18458.25;5004075;28;19928;-79
2023/05/23 05:57:28;;;;;;;;;;;;;;;16.11;100.00;-18461.13;5002761;28;20020;-82
2023/05/23 05:59:53;;;;;;;;;;;;;;;16.06;100.00;-18459.75;4998228;28;19933;-79
2023/05/23 06:02:18;;;;;;;;;;;;;;;16.12;100.00;-18461.28;5003562;28;19972;-82
2023/05/23 06:04:43;;;;;;;;;;;;;;;16.32;100.00;-18466.59;5002832;28;19949;-83
2023/05/23 06:07:08;;;;;;;;;;;;;;;16.06;100.00;-18459.63;4997910;28;19926;-81
2023/05/23 06:09:34;;;;;;;;;;;;;;;16.09;100.00;-18460.44;4992835;28;19921;-79
2023/05/23 06:12:00;;;;;;;;;;;;;;;15.99;100.00;-18458.00;4981172;28;20441;-79
2023/05/23 06:14:25;;;;;;;;;;;;;;;15.97;100.00;-18457.44;4983165;28;20017;-79
2023/05/23 06:16:50;;;;;;;;;;;;;;;16.05;100.00;-18459.50;4982857;28;19930;-79
2023/05/23 06:19:15;;;;;;;;;;;;;;;15.94;100.00;-18456.63;4979624;28;19929;-79
2023/05/23 06:21:41;;;;;;;;;;;;;;;16.23;100.00;-18464.28;4975078;28;19929;-83
2023/05/23 06:24:06;;;;;;;;;;;;;;;15.99;100.00;-18457.84;4986412;28;19922;-82
2023/05/23 06:26:32;;;;;;;;;;;;;;;15.80;100.00;-18452.78;4985211;28;19926;-81
2023/05/23 06:28:57;;;;;;;;;;;;;;;15.77;100.00;-18451.97;4983329;28;20020;-81
2023/05/23 06:31:22;;;;;;;;;;;;;;;15.90;100.00;-18455.53;4981712;28;20515;-80
2023/05/23 06:33:48;;;;;;;;;;;;;;;15.77;100.00;-18451.97;4978851;28;19961;-79
2023/05/23 06:36:13;;;;;;;;;;;;;;;15.66;100.00;-18448.97;4986230;28;19929;-79
2023/05/23 06:38:38;;;;;;;;;;;;;;;15.50;100.00;-18444.84;4980081;28;19926;-79
2023/05/23 06:41:05;;;;;;;;;;;;;;;15.42;100.00;-18442.66;4988547;28;19948;-84
2023/05/23 06:43:31;;;;;;;;;;;;;;;15.61;100.00;-18447.72;4985042;28;19922;-81
2023/05/23 06:45:56;;;;;;;;;;;;;;;15.59;100.00;-18447.19;4981959;28;19983;-80
2023/05/23 06:48:21;;;;;;;;;;;;;;;15.71;100.00;-18450.34;4982360;28;19930;-79
2023/05/23 06:50:46;;;;;;;;;;;;;;;15.33;100.00;-18440.22;4976099;28;19925;-80
2023/05/23 06:53:12;;;;;;;;;;;;;;;15.48;100.00;-18444.31;4983221;28;19921;-82
2023/05/23 06:55:38;;;;;;;;;;;;;;;15.56;100.00;-18446.50;4982998;28;20413;-83
2023/05/23 06:58:03;;;;;;;;;;;;;;;15.44;100.00;-18443.22;4978746;28;19961;-84
2023/05/23 07:00:31;;;;;;;;;;;;;;;15.71;100.00;-18450.34;4978826;28;19922;-80
2023/05/23 07:03:02;;;;;;;;;;;;;;;15.32;100.00;-18440.06;4979767;28;19933;-79
2023/05/23 07:05:27;;;;;;;;;;;;;;;15.49;100.00;-18444.59;4979231;28;19956;-81
2023/05/23 07:07:52;;;;;;;;;;;;;;;15.39;100.00;-18441.84;4981956;28;20345;-81
2023/05/23 07:10:18;;;;;;;;;;;;;;;15.40;100.00;-18442.13;4973769;28;20005;-79
2023/05/23 07:12:44;;;;;;;;;;;;;;;15.30;100.00;-18439.38;4972613;28;20000;-79
2023/05/23 07:15:10;;;;;;;;;;;;;;;15.46;100.00;-18443.63;4994260;28;19922;-79
2023/05/23 07:17:35;;;;;;;;;;;;;;;15.09;100.00;-18433.91;4981373;28;19926;-79
2023/05/23 07:20:00;;;;;;;;;;;;;;;15.07;100.00;-18433.38;5003362;28;19930;-78
2023/05/23 07:22:26;;;;;;;;;;;;;;;15.11;100.00;-18434.47;5001574;28;20442;-78
2023/05/23 07:24:51;;;;;;;;;;;;;;;15.22;100.00;-18437.34;5000790;28;20440;-79
2023/05/23 07:27:16;;;;;;;;;;;;;;;15.11;100.00;-18434.31;5000266;28;19980;-78
2023/05/23 07:29:42;;;;;;;;;;;;;;;15.30;100.00;-18439.38;4999988;28;19972;-77
2023/05/23 07:32:07;;;;;;;;;;;;;;;15.15;100.00;-18435.28;5002310;28;20392;-78
2023/05/23 07:34:32;;;;;;;;;;;;;;;15.16;100.00;-18435.56;4984060;28;19928;-78
2023/05/23 07:36:57;;;;;;;;;;;;;;;15.08;100.00;-18433.63;5000013;28;20353;-77
2023/05/23 07:39:23;;;;;;;;;;;;;;;15.21;100.00;-18436.94;4992826;28;20504;-79
2023/05/23 07:41:49;;;;;;;;;;;;;;;15.38;100.00;-18441.44;5001562;28;20388;-78
2023/05/23 07:44:15;;;;;;;;;;;;;;;15.44;100.00;-18443.22;4995021;28;19976;-78
2023/05/23 07:46:40;;;;;;;;;;;;;;;15.11;100.00;-18434.47;4995000;28;19926;-78
2023/05/23 07:49:05;;;;;;;;;;;;;;;14.94;100.00;-18429.81;4999293;28;19930;-79
2023/05/23 07:51:31;;;;;;;;;;;;;;;15.06;100.00;-18433.09;4981051;28;20335;-79
2023/05/23 07:53:56;;;;;;;;;;;;;;;15.14;100.00;-18435.00;4998833;28;20000;-79
2023/05/23 07:56:22;;;;;;;;;;;;;;;15.20;100.00;-18436.78;4996293;28;20501;-78
2023/05/23 07:58:47;;;;;;;;;;;;;;;15.19;100.00;-18436.38;4999054;28;19929;-79
2023/05/23 08:01:12;;;;;;;;;;;;;;;15.04;100.00;-18432.53;5001902;28;19922;-78
2023/05/23 08:03:38;;;;;;;;;;;;;;;14.98;100.00;-18430.91;4994701;28;20037;-79
2023/05/23 08:06:03;;;;;;;;;;;;;;;15.02;100.00;-18432.00;4995491;28;19961;-77
2023/05/23 08:08:28;;;;;;;;;;;;;;;14.92;100.00;-18429.25;4981006;28;20032;-79
2023/05/23 08:10:54;;;;;;;;;;;;;;;14.88;100.00;-18428.31;4996939;28;19984;-79
2023/05/23 08:13:19;;;;;;;;;;;;;;;14.79;100.00;-18425.72;4985414;28;19968;-78
2023/05/23 08:15:44;;;;;;;;;;;;;;;14.86;100.00;-18427.63;4981853;28;19925;-79
2023/05/23 08:18:10;;;;;;;;;;;;;;;14.77;100.00;-18425.16;4994393;28;20405;-78
2023/05/23 08:20:35;;;;;;;;;;;;;;;14.91;100.00;-18428.84;4974514;28;19929;-78
2023/05/23 08:23:01;;;;;;;;;;;;;;;14.91;100.00;-18429.00;4981495;28;19922;-79
2023/05/23 08:25:30;;;;;;;;;;;;;;;14.96;100.00;-18430.34;4989495;28;19933;-79
2023/05/23 08:27:57;;;;;;;;;;;;;;;15.07;100.00;-18433.38;4976974;28;19934;-78
2023/05/23 08:30:24;;;;;;;;;;;;;;;14.95;100.00;-18430.09;4982216;28;19954;-79
2023/05/23 08:32:49;;;;;;;;;;;;;;;14.99;100.00;-18431.19;4995959;28;19945;-78
2023/05/23 08:35:14;;;;;;;;;;;;;;;14.88;100.00;-18428.16;4978179;28;19925;-77
2023/05/23 08:37:40;;;;;;;;;;;;;;;14.83;100.00;-18426.94;4978700;28;19953;-78
2023/05/23 08:40:07;;;;;;;;;;;;;;;14.81;100.00;-18426.25;4981135;28;19930;-79
2023/05/23 08:42:32;;;;;;;;;;;;;;;14.87;100.00;-18427.91;4974055;28;20464;-78
2023/05/23 08:44:58;;;;;;;;;;;;;;;14.79;100.00;-18425.72;4976116;28;19930;-79
2023/05/23 08:47:23;;;;;;;;;;;;;;;15.24;100.00;-18437.88;4977576;28;19930;-79
2023/05/23 08:49:50;;;;;;;;;;;;;;;15.37;100.00;-18441.31;4975634;28;19926;-79
2023/05/23 08:52:18;;;;;;;;;;;;;;;15.38;100.00;-18441.44;4974173;28;20374;-79
2023/05/23 08:54:43;;;;;;;;;;;;;;;15.62;100.00;-18447.88;4981990;28;19929;-79
2023/05/23 08:57:09;;;;;;;;;;;;;;;15.47;100.00;-18444.03;4976074;28;19926;-79
2023/05/23 08:59:35;;;;;;;;;;;;;;;15.51;100.00;-18445.00;4980534;28;19932;-78
2023/05/23 09:02:02;;;;;;;;;;;;;;;15.62;100.00;-18447.88;4981447;28;19968;-79
2023/05/23 09:04:28;;;;;;;;;;;;;;;15.81;100.00;-18453.06;4977769;28;19928;-79
2023/05/23 09:06:55;;;;;;;;;;;;;;;15.91;100.00;-18455.66;4979849;28;19926;-78
2023/05/23 09:09:20;;;;;;;;;;;;;;;15.80;100.00;-18452.78;4986398;28;19922;-78
2023/05/23 09:11:46;;;;;;;;;;;;;;;15.93;100.00;-18456.22;4978290;28;19936;-79
2023/05/23 09:14:13;;;;;;;;;;;;;;;15.71;100.00;-18450.47;4985322;28;19929;-79
2023/05/23 09:16:38;;;;;;;;;;;;;;;15.48;100.00;-18444.19;4981168;28;19930;-78
2023/05/23 09:19:13;;;;;;;;;;;;;;;15.55;100.00;-18446.09;4983757;28;19926;-78
2023/05/23 09:21:45;;;;;;;;;;;;;;;15.57;100.00;-18446.78;4987749;28;20348;-78
2023/05/23 09:24:10;;;;;;;;;;;;;;;15.49;100.00;-18444.59;4982696;28;20338;-79
2023/05/23 09:26:36;;;;;;;;;;;;;;;15.45;100.00;-18443.50;4979080;28;19933;-79
2023/05/23 09:29:04;;;;;;;;;;;;;;;15.60;100.00;-18447.47;4977505;28;19929;-79
2023/05/23 09:31:30;;;;;;;;;;;;;;;15.30;100.00;-18439.38;4983386;28;19941;-79
2023/05/23 09:33:56;;;;;;;;;;;;;;;15.31;100.00;-18439.78;4987903;28;19925;-79
2023/05/23 09:36:22;;;;;;;;;;;;;;;15.43;100.00;-18442.81;4991723;28;20393;-79
2023/05/23 09:38:47;;;;;;;;;;;;;;;15.35;100.00;-18440.88;4982562;28;19937;-78
2023/05/23 09:41:13;;;;;;;;;;;;;;;15.46;100.00;-18443.63;4991298;28;19992;-79
2023/05/23 09:43:39;;;;;;;;;;;;;;;15.44;100.00;-18443.06;4986317;28;19929;-79
2023/05/23 09:46:11;;;;;;;;;;;;;;;15.43;100.00;-18442.81;4981829;28;19929;-79
2023/05/23 09:48:37;;;;;;;;;;;;;;;15.50;100.00;-18444.84;4988064;28;19932;-78
2023/05/23 09:51:06;;;;;;;;;;;;;;;15.77;100.00;-18451.97;4984214;28;20005;-79
2023/05/23 09:53:31;;;;;;;;;;;;;;;15.83;100.00;-18453.47;4985195;28;20029;-79
2023/05/23 09:56:01;;;;;;;;;;;;;;;15.97;100.00;-18457.44;4986124;28;19949;-78
2023/05/23 09:58:28;;;;;;;;;;;;;;;15.97;100.00;-18457.44;4984402;28;19980;-78
2023/05/23 10:00:55;;;;;;;;;;;;;;;15.89;100.00;-18455.25;5003405;28;19926;-78
2023/05/23 10:03:26;;;;;;;;;;;;;;;15.99;100.00;-18458.00;4984291;28;20305;-79
2023/05/23 10:06:13;;;;;;;;;;;;;;;15.93;100.00;-18456.34;4987728;28;19921;-78
2023/05/23 10:08:47;;;;;;;;;;;;;;;16.02;100.00;-18458.66;5019791;28;19926;-78
2023/05/23 10:11:12;;;;;;;;;;;;;;;16.04;100.00;-18459.22;5004051;28;19932;-79
2023/05/23 10:13:40;;;;;;;;;;;;;;;15.94;100.00;-18456.63;5008281;28;20012;-79
2023/05/23 10:16:13;;;;;;;;;;;;;;;15.87;100.00;-18454.72;5007876;28;19926;-78
2023/05/23 10:18:41;;;;;;;;;;;;;;;15.84;100.00;-18453.88;5010138;28;19952;-78
2023/05/23 10:21:10;;;;;;;;;;;;;;;15.77;100.00;-18451.97;5005096;28;20296;-78
2023/05/23 10:23:36;;;;;;;;;;;;;;;15.47;100.00;-18443.91;5003875;28;20556;-78
2023/05/23 10:26:03;;;;;;;;;;;;;;;15.48;100.00;-18444.19;5010944;28;19922;-79
2023/05/23 10:28:29;;;;;;;;;;;;;;;15.68;100.00;-18449.50;5002431;28;19976;-78
2023/05/23 10:30:54;;;;;;;;;;;;;;;15.98;100.00;-18457.56;5003101;28;20576;-79
2023/05/23 10:33:21;;;;;;;;;;;;;;;16.09;100.00;-18460.44;5003816;28;19929;-78
2023/05/23 10:35:46;;;;;;;;;;;;;;;15.95;100.00;-18456.91;5007157;28;19925;-79
2023/05/23 10:38:33;;;;;;;;;;;;;;;16.12;100.00;-18461.28;5019087;28;19937;-79
2023/05/23 10:41:04;;;;;;;;;;;;;;;16.34;100.00;-18467.16;5016330;28;19987;-79
2023/05/23 10:43:33;;;;;;;;;;;;;;;16.67;100.00;-18476.16;5005692;28;20308;-79
2023/05/23 10:45:58;;;;;;;;;;;;;;;16.73;100.00;-18477.53;5006217;28;19961;-78
2023/05/23 10:48:34;;;;;;;;;;;;;;;16.62;100.00;-18474.66;5009066;28;19988;-78
2023/05/23 10:51:05;;;;;;;;;;;;;;;16.75;100.00;-18478.06;4993794;28;19944;-78
2023/05/23 10:53:33;;;;;;;;;;;;;;;16.54;100.00;-18472.59;5009254;28;19921;-79
2023/05/23 10:55:58;;;;;;;;;;;;;;;16.44;100.00;-18470.00;5006128;28;19976;-78
2023/05/23 10:58:23;;;;;;;;;;;;;;;16.88;100.00;-18481.75;4999405;28;19926;-78
2023/05/23 11:00:55;;;;;;;;;;;;;;;17.05;100.00;-18486.28;5004075;28;19925;-79
2023/05/23 11:03:30;;;;;;;;;;;;;;;17.08;100.00;-18487.09;5002784;28;19926;-79
2023/05/23 11:05:55;;;;;;;;;;;;;;;17.12;100.00;-18488.06;5006149;28;19921;-78
2023/05/23 11:08:23;;;;;;;;;;;;;;;17.37;95.67;-18494.88;5000421;28;19932;-78
2023/05/23 11:10:51;;;;;;;;;;;;;;;17.51;86.20;-18498.56;5002905;28;19994;-78
2023/05/23 11:13:16;;;;;;;;;;;;;;;17.45;92.41;-18496.78;5004562;28;19999;-79
2023/05/23 11:15:43;;;;;;;;;;;;;;;17.55;93.95;-18499.50;5004642;28;19925;-78
2023/05/23 11:18:10;;;;;;;;;;;;;;;17.93;87.12;-18509.75;5000677;28;19944;-79
2023/05/23 11:20:36;;;;;;;;;;;;;;;17.76;81.87;-18505.25;5003297;28;19989;-79
2023/05/23 11:23:02;;;;;;;;;;;;;;;17.93;87.59;-18509.63;5008814;28;20361;-79
2023/05/23 11:25:46;;;;;;;;;;;;;;;18.10;87.88;-18514.13;5007451;28;19925;-78
2023/05/23 11:28:12;;;;;;;;;;;;;;;17.76;83.90;-18505.25;5011377;28;20308;-79
2023/05/23 11:30:37;;;;;;;;;;;;;;;17.91;83.60;-18509.22;5005460;28;19925;-78
2023/05/23 11:33:12;;;;;;;;;;;;;;;17.91;84.90;-18509.06;5001794;28;19976;-79
2023/05/23 11:35:48;;;;;;;;;;;;;;;17.86;81.81;-18507.84;5000819;28;19925;-79
2023/05/23 11:38:14;;;;;;;;;;;;;;;18.18;83.96;-18516.44;5004339;28;19921;-78
2023/05/23 11:40:41;;;;;;;;;;;;;;;18.43;81.46;-18523.13;5005300;28;20428;-79
2023/05/23 11:43:07;;;;;;;;;;;;;;;18.49;76.85;-18524.63;5003756;28;19925;-78
2023/05/23 11:45:33;;;;;;;;;;;;;;;18.11;79.85;-18514.53;5000129;28;19936;-78
2023/05/23 11:48:03;;;;;;;;;;;;;;;18.37;77.06;-18521.34;5002659;28;19952;-79
2023/05/23 11:50:28;;;;;;;;;;;;;;;18.60;74.02;-18527.47;5004326;28;19921;-79
2023/05/23 11:52:54;;;;;;;;;;;;;;;18.61;71.70;-18527.88;5000535;28;19979;-79
2023/05/23 11:55:20;;;;;;;;;;;;;;;18.19;73.67;-18516.72;5003971;28;20471;-78
2023/05/23 11:57:45;;;;;;;;;;;;;;;18.32;74.95;-18519.97;5006726;28;19926;-78
2023/05/23 12:00:11;;;;;;;;;;;;;;;18.64;69.57;-18528.72;5001774;28;19936;-79
2023/05/23 12:02:39;;;;;;;;;;;;;;;18.42;70.91;-18522.72;5005749;28;20408;-79
2023/05/23 12:05:12;;;;;;;;;;;;;;;18.55;70.24;-18526.25;5002406;28;19928;-78
2023/05/23 12:07:41;;;;;;;;;;;;;;;18.68;70.52;-18529.66;5004372;28;20006;-79
2023/05/23 12:10:09;;;;;;;;;;;;;;;18.86;68.86;-18534.44;5006005;28;21463;-79
2023/05/23 12:12:34;;;;;;;;;;;;;;;19.01;71.53;-18538.41;5004517;28;19925;-79
2023/05/23 12:15:00;;;;;;;;;;;;;;;19.35;66.45;-18547.53;5006758;28;19968;-79
2023/05/23 12:17:25;;;;;;;;;;;;;;;19.21;61.07;-18543.72;5012005;28;19921;-79
2023/05/23 12:19:51;;;;;;;;;;;;;;;19.14;60.84;-18542.06;5010467;28;20317;-79
2023/05/23 12:22:21;;;;;;;;;;;;;;;19.29;62.68;-18545.88;5012507;28;19921;-79
2023/05/23 12:24:46;;;;;;;;;;;;;;;19.16;57.54;-18542.47;5016096;28;20324;-79